createdAt,value
2017-08-16T00:01:15.998Z,27.4
2017-08-16T00:06:21.744Z,27.4
2017-08-16T00:11:27.829Z,27.4
2017-08-16T00:16:33.273Z,27.4
2017-08-16T00:21:39.394Z,27.4
2017-08-16T00:26:44.797Z,27.3
2017-08-16T00:31:50.543Z,27.3
2017-08-16T00:36:55.959Z,27.3
2017-08-16T00:42:00.711Z,27.3
2017-08-16T00:47:05.798Z,27.3
2017-08-16T00:52:11.549Z,27.3
2017-08-16T00:57:16.963Z,27.3
2017-08-16T01:02:22.392Z,27.3
2017-08-16T01:07:28.148Z,27.3
2017-08-16T01:12:33.898Z,27.3
2017-08-16T01:17:39.643Z,27.3
2017-08-16T01:22:45.449Z,27.3
2017-08-16T01:27:51.203Z,27.3
2017-08-16T01:32:56.617Z,27.3
2017-08-16T01:38:02.363Z,27.3
2017-08-16T01:43:07.878Z,27.3
2017-08-16T01:48:13.630Z,27.3
2017-08-16T01:53:19.246Z,27.2
2017-08-16T01:58:24.658Z,27.2
2017-08-16T02:03:30.737Z,27.2
2017-08-16T02:08:36.146Z,27.2
2017-08-16T02:13:42.224Z,27.2
2017-08-16T02:18:47.968Z,27.2
2017-08-16T02:23:53.041Z,27.2
2017-08-16T02:28:58.113Z,27.2
2017-08-16T02:34:03.187Z,27.2
2017-08-16T02:39:08.595Z,27.2
2017-08-16T02:44:14.342Z,27.2
2017-08-16T02:49:20.420Z,27.2
2017-08-16T02:54:25.493Z,27.2
2017-08-16T02:59:30.904Z,27.2
2017-08-16T03:04:36.646Z,27.2
2017-08-16T03:09:42.056Z,27.2
2017-08-16T03:14:47.466Z,27.2
2017-08-16T03:19:53.210Z,27.2
2017-08-16T03:24:58.622Z,27.2
2017-08-16T03:30:04.035Z,27.1
2017-08-16T03:35:09.441Z,27.1
2017-08-16T03:40:14.857Z,27.1
2017-08-16T03:45:19.592Z,27.1
2017-08-16T03:50:25.673Z,27.1
2017-08-16T03:55:30.747Z,27.1
2017-08-16T04:00:36.155Z,27.1
2017-08-16T04:05:42.235Z,27.1
2017-08-16T04:10:48.317Z,27.1
2017-08-16T04:15:54.395Z,27.1
2017-08-16T04:21:00.142Z,27.1
2017-08-16T04:26:06.220Z,27.1
2017-08-16T04:31:11.633Z,27.1
2017-08-16T04:36:17.716Z,27.1
2017-08-16T04:41:23.806Z,27.1
2017-08-16T04:46:29.211Z,27.1
2017-08-16T04:51:35.292Z,27.1
2017-08-16T04:56:40.712Z,27.1
2017-08-16T05:01:46.467Z,27.1
2017-08-16T05:06:51.537Z,27.1
2017-08-16T05:11:57.281Z,27.1
2017-08-16T05:17:03.363Z,27.1
2017-08-16T05:22:09.114Z,27.1
2017-08-16T05:27:14.531Z,27.1
2017-08-16T05:32:19.948Z,27.1
2017-08-16T05:37:25.355Z,27.1
2017-08-16T05:42:30.766Z,27.1
2017-08-16T05:47:36.844Z,27.1
2017-08-16T05:52:42.253Z,27.2
2017-08-16T05:57:47.331Z,27.2
2017-08-16T06:02:52.744Z,27.2
2017-08-16T06:07:57.819Z,27.2
2017-08-16T06:13:03.902Z,27.3
2017-08-16T06:18:09.313Z,27.3
2017-08-16T06:23:15.059Z,27.3
2017-08-16T06:28:20.470Z,27.3
2017-08-16T06:33:26.215Z,27.3
2017-08-16T06:38:31.966Z,27.3
2017-08-16T06:43:37.379Z,27.4
2017-08-16T06:48:43.460Z,27.4
2017-08-16T06:53:48.540Z,27.4
2017-08-16T06:58:53.356Z,27.4
2017-08-16T07:03:59.086Z,27.4
2017-08-16T07:09:05.166Z,27.4
2017-08-16T07:14:10.917Z,27.4
2017-08-16T07:19:16.670Z,27.4
2017-08-16T07:24:22.083Z,27.5
2017-08-16T07:29:26.823Z,27.4
2017-08-16T07:34:32.619Z,27.4
2017-08-16T07:39:38.419Z,27.4
2017-08-16T07:44:43.834Z,27.4
2017-08-16T07:49:49.244Z,27.4
2017-08-16T07:54:55.329Z,27.4
2017-08-16T08:00:01.077Z,27.4
2017-08-16T08:05:05.818Z,27.4
2017-08-16T08:10:11.230Z,27.5
2017-08-16T08:15:15.973Z,27.7
2017-08-16T08:20:22.062Z,28
2017-08-16T08:25:27.531Z,28.4
2017-08-16T08:30:33.285Z,28.5
2017-08-16T08:35:39.045Z,28.6
2017-08-16T08:40:44.804Z,29.1
2017-08-16T08:45:49.565Z,29.5
2017-08-16T08:50:54.988Z,29.5
2017-08-16T08:56:00.752Z,29.6
2017-08-16T09:01:06.184Z,29.9
2017-08-16T09:06:11.949Z,30
2017-08-16T09:11:17.046Z,30.2
2017-08-16T09:16:23.145Z,30
2017-08-16T09:21:28.574Z,29.7
2017-08-16T09:26:34.004Z,29.7
2017-08-16T09:31:40.102Z,29.8
2017-08-16T09:36:45.866Z,29.9
2017-08-16T09:41:51.633Z,30
2017-08-16T09:46:57.068Z,30.1
2017-08-16T09:52:02.833Z,30.2
2017-08-16T09:57:08.266Z,30.3
2017-08-16T10:02:14.029Z,30.4
2017-08-16T10:07:19.462Z,30.3
2017-08-16T10:12:24.893Z,30.3
2017-08-16T10:17:30.655Z,30.2
2017-08-16T10:22:36.421Z,30
2017-08-16T10:27:42.182Z,29.8
2017-08-16T10:32:47.942Z,29.5
2017-08-16T10:37:53.029Z,29.3
2017-08-16T10:42:58.452Z,29.2
2017-08-16T10:48:04.266Z,29.1
2017-08-16T10:53:09.687Z,29
2017-08-16T10:58:14.775Z,28.9
2017-08-16T11:03:20.201Z,28.8
2017-08-16T11:08:25.954Z,28.8
2017-08-16T11:13:31.375Z,28.7
2017-08-16T11:18:37.128Z,28.7
2017-08-16T11:23:42.887Z,28.7
2017-08-16T11:28:48.315Z,28.6
2017-08-16T11:33:53.404Z,28.6
2017-08-16T11:38:59.493Z,28.6
2017-08-16T11:44:04.575Z,28.6
2017-08-16T11:49:10.666Z,28.6
2017-08-16T11:54:15.748Z,28.5
2017-08-16T11:59:21.163Z,28.6
2017-08-16T12:04:25.915Z,28.5
2017-08-16T12:09:32.004Z,28.5
2017-08-16T12:14:37.421Z,28.5
2017-08-16T12:19:42.505Z,28.5
2017-08-16T12:24:47.923Z,28.4
2017-08-16T12:29:53.012Z,28.4
2017-08-16T12:34:58.091Z,28.4
2017-08-16T12:40:03.514Z,28.4
2017-08-16T12:45:08.590Z,28.4
2017-08-16T12:50:14.005Z,28.3
2017-08-16T12:55:19.762Z,28.4
2017-08-16T13:00:25.174Z,28.3
2017-08-16T13:05:30.257Z,28.2
2017-08-16T13:10:35.007Z,28.1
2017-08-16T13:15:40.422Z,28
2017-08-16T13:20:46.174Z,27.9
2017-08-16T13:25:50.919Z,27.9
2017-08-16T13:30:57.003Z,27.8
2017-08-16T13:36:03.098Z,27.8
2017-08-16T13:41:08.177Z,27.7
2017-08-16T13:46:14.261Z,27.7
2017-08-16T13:51:19.724Z,27.7
2017-08-16T13:56:25.805Z,27.6
2017-08-16T14:01:31.219Z,27.6
2017-08-16T14:06:36.299Z,27.6
2017-08-16T14:11:42.046Z,27.6
2017-08-16T14:16:47.793Z,27.7
2017-08-16T14:21:53.644Z,27.7
2017-08-16T14:26:58.727Z,27.7
2017-08-16T14:32:04.476Z,27.7
2017-08-16T14:37:09.554Z,27.8
2017-08-16T14:42:14.961Z,27.7
2017-08-16T14:47:20.712Z,27.7
2017-08-16T14:52:26.654Z,27.7
2017-08-16T14:57:31.396Z,27.6
2017-08-16T15:02:36.808Z,27.5
2017-08-16T15:07:42.220Z,27.4
2017-08-16T15:12:47.631Z,27.3
2017-08-16T15:17:53.379Z,27.3
2017-08-16T15:22:59.126Z,27.2
2017-08-16T15:28:04.536Z,27.2
2017-08-16T15:33:09.618Z,27.2
2017-08-16T15:38:14.702Z,27.1
2017-08-16T15:43:20.112Z,27.1
2017-08-16T15:48:25.521Z,27.1
2017-08-16T15:53:30.598Z,27.1
2017-08-16T15:58:35.352Z,27.1
2017-08-16T16:03:41.098Z,27.1
2017-08-16T16:08:46.507Z,27
2017-08-16T16:13:51.582Z,27
2017-08-16T16:18:57.659Z,27
2017-08-16T16:24:03.073Z,27
2017-08-16T16:29:08.487Z,26.9
2017-08-16T16:34:13.901Z,26.9
2017-08-16T16:39:19.309Z,26.9
2017-08-16T16:44:25.055Z,26.9
2017-08-16T16:49:30.464Z,26.9
2017-08-16T16:54:36.217Z,26.8
2017-08-16T16:59:42.294Z,26.8
2017-08-16T17:04:48.038Z,26.8
2017-08-16T17:09:53.779Z,26.8
2017-08-16T17:14:59.193Z,26.8
2017-08-16T17:20:04.651Z,26.7
2017-08-16T17:25:09.728Z,26.7
2017-08-16T17:30:15.145Z,26.6
2017-08-16T17:35:20.885Z,26.6
2017-08-16T17:40:25.975Z,26.5
2017-08-16T17:45:31.385Z,26.5
2017-08-16T17:50:37.132Z,26.4
2017-08-16T17:55:42.880Z,26.5
2017-08-16T18:00:48.301Z,26.6
2017-08-16T18:05:54.387Z,26.7
2017-08-16T18:11:00.135Z,26.8
2017-08-16T18:16:06.227Z,26.8
2017-08-16T18:21:11.640Z,26.9
2017-08-16T18:26:16.722Z,26.9
2017-08-16T18:31:22.141Z,26.9
2017-08-16T18:36:27.221Z,26.9
2017-08-16T18:41:32.301Z,26.9
2017-08-16T18:46:38.049Z,26.9
2017-08-16T18:51:43.805Z,26.9
2017-08-16T18:56:49.562Z,27
2017-08-16T19:01:55.644Z,27
2017-08-16T19:07:01.728Z,27
2017-08-16T19:12:07.814Z,27
2017-08-16T19:17:13.223Z,26.9
2017-08-16T19:22:18.637Z,26.9
2017-08-16T19:27:23.708Z,26.8
2017-08-16T19:32:29.117Z,26.8
2017-08-16T19:37:34.197Z,26.8
2017-08-16T19:42:38.935Z,26.7
2017-08-16T19:47:44.005Z,26.7
2017-08-16T19:52:50.080Z,26.7
2017-08-16T19:57:55.489Z,26.6
2017-08-16T20:03:00.895Z,26.7
2017-08-16T20:08:06.300Z,26.7
2017-08-16T20:13:11.039Z,26.7
2017-08-16T20:18:16.449Z,26.8
2017-08-16T20:23:21.861Z,26.8
2017-08-16T20:28:27.272Z,26.8
2017-08-16T20:33:33.008Z,26.8
2017-08-16T20:38:38.417Z,26.9
2017-08-16T20:43:43.829Z,26.9
2017-08-16T20:48:48.899Z,26.9
2017-08-16T20:53:54.640Z,26.9
2017-08-16T20:59:00.737Z,27
2017-08-16T21:04:06.151Z,27
2017-08-16T21:09:11.573Z,27
2017-08-16T21:14:16.669Z,27
2017-08-16T21:19:22.430Z,27
2017-08-16T21:24:28.190Z,27
2017-08-16T21:29:33.612Z,27
2017-08-16T21:34:39.371Z,27
2017-08-16T21:39:44.794Z,27
2017-08-16T21:44:50.541Z,27
2017-08-16T21:49:55.958Z,27
2017-08-16T21:55:01.364Z,27
2017-08-16T22:00:06.439Z,27
2017-08-16T22:05:12.516Z,27
2017-08-16T22:10:17.926Z,27
2017-08-16T22:15:24.002Z,27
2017-08-16T22:20:29.745Z,27
2017-08-16T22:25:35.824Z,27
2017-08-16T22:30:41.232Z,27
2017-08-16T22:35:47.310Z,26.9
2017-08-16T22:40:52.719Z,26.9
2017-08-16T22:45:58.467Z,26.9
2017-08-16T22:51:03.883Z,26.9
2017-08-16T22:56:09.966Z,26.9
2017-08-16T23:01:16.046Z,26.9
2017-08-16T23:06:21.450Z,26.9
2017-08-16T23:11:26.861Z,26.9
2017-08-16T23:16:31.961Z,26.9
2017-08-16T23:21:37.033Z,26.9
2017-08-16T23:26:42.109Z,26.9
2017-08-16T23:31:47.848Z,26.9
2017-08-16T23:36:52.922Z,26.8
2017-08-16T23:41:57.998Z,26.8
2017-08-16T23:47:03.738Z,26.8
2017-08-16T23:52:08.812Z,26.8
2017-08-16T23:57:14.553Z,26.8
